Time;durP1;ratioP1;P1;durP2;ratioP2;P2;SDS_P1;SDS_P2;PMS_P1;PMS_P2;Temp;Humidity;BMP_temperature;BMP_pressure;BME280_temperature;BME280_humidity;BME280_pressure;Samples;Min_cycle;Max_cycle;Signal;HPM_P1;HPM_P2
2021/06/30 00:01:42;;;;;;;8.70;3.53;;;14.50;75.10;;;;;;4948055;28;95821;-46
2021/06/30 00:04:18;;;;;;;8.60;4.07;;;14.50;75.20;;;;;;4951539;28;95807;-46
2021/06/30 00:06:50;;;;;;;8.40;4.18;;;14.70;75.00;;;;;;4996847;28;98353;-46
2021/06/30 00:09:22;;;;;;;5.45;3.83;;;14.70;75.10;;;;;;4964487;28;95997;-46
2021/06/30 00:11:57;;;;;;;7.05;4.25;;;14.80;74.80;;;;;;4961242;28;95506;-45
2021/06/30 00:14:34;;;;;;;6.57;3.55;;;14.90;74.10;;;;;;4955750;28;97482;-46
2021/06/30 00:17:10;;;;;;;5.80;4.13;;;14.90;73.70;;;;;;4959105;28;97757;-45
2021/06/30 00:19:46;;;;;;;6.53;4.15;;;15.00;73.80;;;;;;4953279;28;95814;-45
2021/06/30 00:22:20;;;;;;;4.05;3.20;;;15.00;73.40;;;;;;4963946;28;96281;-45
2021/06/30 00:24:55;;;;;;;5.78;3.13;;;15.10;74.30;;;;;;4968176;28;95854;-45
2021/06/30 00:27:30;;;;;;;4.95;3.70;;;15.10;73.70;;;;;;4964154;28;95938;-44
2021/06/30 00:30:08;;;;;;;4.32;3.08;;;15.20;73.80;;;;;;4948938;28;95950;-45
2021/06/30 00:32:44;;;;;;;4.18;3.45;;;15.20;73.90;;;;;;4958792;28;103354;-44
2021/06/30 00:35:20;;;;;;;4.15;3.00;;;15.30;73.90;;;;;;4951414;28;96181;-45
2021/06/30 00:37:56;;;;;;;3.67;3.33;;;15.30;73.90;;;;;;4962520;28;96033;-45
2021/06/30 00:40:32;;;;;;;5.43;3.75;;;15.40;74.10;;;;;;4965958;28;95921;-45
2021/06/30 00:43:08;;;;;;;4.47;3.30;;;15.40;74.10;;;;;;4957966;28;97306;-46
2021/06/30 00:45:43;;;;;;;4.90;3.08;;;15.50;74.10;;;;;;4962522;28;97982;-45
2021/06/30 00:48:18;;;;;;;3.50;3.05;;;15.50;74.00;;;;;;4963810;28;95776;-45
2021/06/30 00:50:54;;;;;;;4.85;3.47;;;15.60;74.10;;;;;;4965916;28;95880;-46
2021/06/30 00:53:29;;;;;;;3.92;3.53;;;15.60;74.10;;;;;;4959281;28;96915;-46
2021/06/30 00:56:04;;;;;;;3.55;3.10;;;15.70;74.10;;;;;;4963208;28;96131;-47
2021/06/30 00:58:41;;;;;;;6.28;3.75;;;15.70;74.20;;;;;;4959887;28;95716;-47
2021/06/30 01:01:17;;;;;;;4.50;3.88;;;15.70;74.10;;;;;;4954784;28;95854;-46
2021/06/30 01:03:53;;;;;;;6.65;4.18;;;15.80;74.20;;;;;;4952295;28;96689;-46
2021/06/30 01:06:29;;;;;;;4.00;3.60;;;15.80;74.30;;;;;;4961260;28;95627;-45
2021/06/30 01:09:06;;;;;;;3.78;3.35;;;15.90;74.40;;;;;;4978716;28;96064;-45
2021/06/30 01:11:37;;;;;;;5.63;3.78;;;16.00;74.30;;;;;;4951329;28;96032;-49
2021/06/30 01:14:23;;;;;;;4.55;3.30;;;16.00;72.90;;;;;;4979098;28;95975;-47
2021/06/30 01:16:59;;;;;;;29.23;4.03;;;16.00;72.80;;;;;;4954555;28;98073;-46
2021/06/30 01:19:37;;;;;;;4.22;3.65;;;16.00;72.50;;;;;;4952418;28;96103;-47
2021/06/30 01:22:14;;;;;;;3.78;3.33;;;16.10;72.00;;;;;;4951573;28;95862;-47
2021/06/30 01:24:51;;;;;;;5.63;3.88;;;16.10;71.80;;;;;;4954453;28;95745;-47
2021/06/30 01:27:34;;;;;;;3.80;3.15;;;16.10;71.30;;;;;;4952798;28;95916;-46
2021/06/30 01:30:09;;;;;;;5.82;3.83;;;16.10;71.40;;;;;;4950173;28;95924;-46
2021/06/30 01:32:39;;;;;;;3.88;3.15;;;16.10;71.50;;;;;;4952090;28;100341;-46
2021/06/30 01:35:26;;;;;;;8.88;3.38;;;16.10;71.40;;;;;;4956162;28;96078;-46
2021/06/30 01:38:02;;;;;;;4.07;3.28;;;16.20;71.60;;;;;;4949038;28;95320;-46
2021/06/30 01:40:40;;;;;;;5.40;3.63;;;16.30;71.60;;;;;;4951778;28;96123;-46
2021/06/30 01:43:15;;;;;;;6.22;4.30;;;16.40;71.50;;;;;;4959049;28;95893;-49
2021/06/30 01:45:54;;;;;;;3.53;3.20;;;16.50;71.80;;;;;;4947393;28;96112;-47
2021/06/30 01:48:30;;;;;;;3.55;3.17;;;16.50;71.10;;;;;;4954303;28;95431;-47
2021/06/30 01:51:05;;;;;;;3.90;3.22;;;16.60;70.90;;;;;;4951023;28;95929;-48
2021/06/30 01:53:41;;;;;;;3.90;3.40;;;16.80;70.70;;;;;;4949777;28;96572;-48
2021/06/30 01:56:12;;;;;;;5.47;3.72;;;16.90;70.40;;;;;;4954886;28;95820;-46
2021/06/30 01:58:47;;;;;;;3.35;3.05;;;17.00;70.10;;;;;;4950465;28;95654;-48
2021/06/30 02:01:24;;;;;;;3.78;2.80;;;17.00;70.00;;;;;;4950377;28;97345;-47
2021/06/30 02:04:00;;;;;;;3.05;2.75;;;17.10;69.70;;;;;;4953031;28;95860;-47
2021/06/30 02:06:44;;;;;;;3.78;2.92;;;17.20;69.40;;;;;;4951004;28;95660;-47
2021/06/30 02:09:20;;;;;;;3.45;2.78;;;17.30;69.30;;;;;;4950635;28;95205;-45
2021/06/30 02:11:56;;;;;;;4.63;3.03;;;17.30;68.90;;;;;;4948395;28;96072;-46
2021/06/30 02:14:32;;;;;;;2.92;2.72;;;17.40;68.70;;;;;;4956274;28;95998;-47
2021/06/30 02:17:07;;;;;;;3.50;3.00;;;17.50;68.60;;;;;;4948645;28;96199;-47
2021/06/30 02:19:43;;;;;;;3.22;2.78;;;17.50;68.60;;;;;;4949486;28;95440;-46
2021/06/30 02:22:18;;;;;;;2.45;2.20;;;17.60;68.30;;;;;;4949536;28;97034;-46
2021/06/30 02:24:56;;;;;;;2.67;2.47;;;17.60;68.10;;;;;;4954268;28;95917;-47
2021/06/30 02:27:31;;;;;;;3.45;2.72;;;17.70;68.00;;;;;;4950720;28;95331;-45
2021/06/30 02:30:18;;;;;;;2.67;2.45;;;17.80;67.90;;;;;;4955887;28;95827;-46
2021/06/30 02:33:18;;;;;;;2.75;2.00;;;17.80;67.90;;;;;;4946477;28;96281;-46
2021/06/30 02:35:55;;;;;;;2.60;2.03;;;18.00;67.70;;;;;;4964208;28;95911;-44
2021/06/30 02:38:33;;;;;;;2.42;2.22;;;18.10;67.50;;;;;;4965155;28;96158;-45
2021/06/30 02:41:13;;;;;;;2.53;2.17;;;18.20;67.20;;;;;;4954928;28;95818;-46
2021/06/30 02:43:50;;;;;;;2.30;2.10;;;18.30;67.00;;;;;;4961971;28;95262;-46
2021/06/30 02:46:27;;;;;;;3.67;2.63;;;18.40;66.90;;;;;;4953994;28;96597;-51
2021/06/30 02:49:05;;;;;;;2.70;2.30;;;18.50;66.60;;;;;;4945058;28;95954;-47
2021/06/30 02:51:41;;;;;;;2.72;2.28;;;18.60;65.70;;;;;;4945805;28;96233;-49
2021/06/30 02:54:15;;;;;;;2.03;1.80;;;18.70;66.00;;;;;;4958405;28;95202;-48
2021/06/30 02:56:50;;;;;;;2.42;2.22;;;18.70;66.00;;;;;;4950106;28;98346;-49
2021/06/30 02:59:26;;;;;;;2.83;2.30;;;18.70;66.00;;;;;;4960212;28;96182;-48
2021/06/30 03:02:01;;;;;;;2.00;1.80;;;18.70;66.10;;;;;;4946333;28;95726;-45
2021/06/30 03:04:36;;;;;;;5.63;1.70;;;18.80;66.30;;;;;;4962147;28;96164;-44
2021/06/30 03:07:13;;;;;;;2.17;1.95;;;19.00;66.60;;;;;;4963746;28;95859;-46
2021/06/30 03:09:43;;;;;;;2.80;2.00;;;19.10;66.60;;;;;;4952664;28;96144;-46
2021/06/30 03:12:19;;;;;;;2.22;1.92;;;19.20;65.30;;;;;;4951197;28;95582;-46
2021/06/30 03:14:55;;;;;;;2.22;2.03;;;19.10;65.40;;;;;;4955061;28;96150;-46
2021/06/30 03:17:34;;;;;;;1.77;1.65;;;19.20;65.70;;;;;;4947151;28;96042;-46
2021/06/30 03:20:16;;;;;;;2.30;1.85;;;19.20;65.70;;;;;;4956443;28;95628;-46
2021/06/30 03:22:51;;;;;;;5.38;1.60;;;19.20;65.60;;;;;;4958171;28;95860;-47
2021/06/30 03:25:26;;;;;;;2.97;1.80;;;19.20;65.70;;;;;;4967524;28;95858;-47
2021/06/30 03:28:01;;;;;;;2.00;1.80;;;19.20;65.70;;;;;;4955968;28;96148;-46
2021/06/30 03:30:36;;;;;;;2.38;1.80;;;19.20;65.90;;;;;;4960540;28;95437;-46
2021/06/30 03:33:13;;;;;;;2.50;1.80;;;19.30;65.90;;;;;;4950476;28;95577;-47
2021/06/30 03:35:50;;;;;;;1.73;1.63;;;19.10;64.90;;;;;;4961128;28;95651;-46
2021/06/30 03:38:22;;;;;;;1.63;1.52;;;19.00;65.70;;;;;;4965622;28;96636;-59
2021/06/30 03:41:00;;;;;;;1.65;1.55;;;19.00;66.10;;;;;;4964608;28;95787;-59
2021/06/30 03:43:35;;;;;;;1.95;1.77;;;19.00;66.40;;;;;;4963144;28;95650;-57
2021/06/30 03:46:09;;;;;;;1.90;1.80;;;19.00;66.40;;;;;;4962235;28;97352;-58
2021/06/30 03:48:45;;;;;;;1.80;1.30;;;19.00;66.40;;;;;;4951993;28;96733;-55
2021/06/30 03:51:21;;;;;;;2.20;2.00;;;19.30;66.30;;;;;;4965347;28;95695;-57
2021/06/30 03:53:56;;;;;;;1.42;1.33;;;19.70;66.00;;;;;;4968014;28;95312;-56
2021/06/30 03:56:31;;;;;;;1.77;1.60;;;20.00;65.50;;;;;;4962214;28;95721;-55
2021/06/30 03:59:06;;;;;;;1.48;1.30;;;20.20;65.60;;;;;;4958020;28;96407;-56
2021/06/30 04:01:43;;;;;;;1.45;1.33;;;20.40;65.40;;;;;;4959135;28;95758;-53
2021/06/30 04:04:19;;;;;;;2.35;1.30;;;20.60;65.40;;;;;;4964484;28;95890;-53
2021/06/30 04:06:51;;;;;;;1.20;1.10;;;20.70;65.30;;;;;;4964989;28;95928;-55
2021/06/30 04:09:28;;;;;;;2.33;1.60;;;20.80;65.00;;;;;;4966190;28;96011;-58
2021/06/30 04:12:03;;;;;;;1.75;1.35;;;21.00;65.10;;;;;;4961691;28;96548;-57
2021/06/30 04:14:39;;;;;;;1.60;1.20;;;21.10;65.10;;;;;;4956186;28;95810;-58
2021/06/30 04:17:15;;;;;;;1.50;1.38;;;21.20;65.00;;;;;;4960042;28;95468;-56
2021/06/30 04:19:50;;;;;;;1.35;1.25;;;21.30;65.20;;;;;;4965952;28;96426;-57
2021/06/30 04:22:21;;;;;;;1.43;1.10;;;21.40;65.00;;;;;;4961747;28;98127;-55
2021/06/30 04:24:56;;;;;;;1.40;1.30;;;21.50;64.90;;;;;;4967075;28;95738;-54
2021/06/30 04:27:33;;;;;;;1.23;1.10;;;21.60;64.80;;;;;;4959923;28;96207;-57
2021/06/30 04:30:10;;;;;;;1.27;1.17;;;21.70;64.70;;;;;;4959833;28;96562;-58
2021/06/30 04:32:46;;;;;;;1.65;1.55;;;21.80;65.50;;;;;;4962442;28;102618;-57
2021/06/30 04:35:22;;;;;;;1.00;1.00;;;21.80;64.70;;;;;;4966249;28;95569;-49
2021/06/30 04:37:58;;;;;;;1.42;1.33;;;22.00;64.80;;;;;;4961277;28;95463;-56
2021/06/30 04:40:34;;;;;;;1.42;1.33;;;22.00;64.70;;;;;;4965199;28;96565;-56
2021/06/30 04:43:10;;;;;;;1.15;1.10;;;22.10;64.80;;;;;;4962313;28;95864;-56
2021/06/30 04:45:46;;;;;;;1.48;1.38;;;22.10;64.60;;;;;;4953089;28;95435;-59
2021/06/30 04:48:22;;;;;;;1.48;1.38;;;22.20;64.60;;;;;;4961234;28;95856;-56
2021/06/30 04:50:57;;;;;;;1.50;1.40;;;22.20;64.50;;;;;;4965071;28;95850;-58
2021/06/30 04:53:32;;;;;;;1.20;1.10;;;22.20;64.80;;;;;;4956896;28;95313;-56
2021/06/30 04:56:07;;;;;;;1.50;1.50;;;22.20;64.50;;;;;;4964679;28;95703;-58
2021/06/30 04:58:43;;;;;;;1.48;1.38;;;22.20;64.50;;;;;;4957344;28;101905;-59
2021/06/30 05:01:15;;;;;;;2.45;1.67;;;22.20;64.60;;;;;;4952190;28;98018;-56
2021/06/30 05:03:46;;;;;;;1.60;1.50;;;22.30;64.70;;;;;;4957850;28;96006;-58
2021/06/30 05:06:24;;;;;;;1.52;1.42;;;22.30;64.50;;;;;;4964476;28;95309;-45
2021/06/30 05:09:00;;;;;;;1.27;1.17;;;22.30;64.80;;;;;;4961145;28;95597;-58
2021/06/30 05:11:35;;;;;;;1.10;1.10;;;22.30;64.60;;;;;;4961657;28;96650;-58
2021/06/30 05:14:11;;;;;;;1.83;1.45;;;22.30;64.70;;;;;;4949465;28;95763;-58
2021/06/30 05:16:47;;;;;;;1.30;1.20;;;22.30;64.70;;;;;;4956446;28;95996;-59
2021/06/30 05:19:23;;;;;;;0.90;0.90;;;22.30;64.70;;;;;;4958884;28;96021;-59
2021/06/30 05:21:58;;;;;;;1.33;1.10;;;22.40;64.80;;;;;;4959929;28;96567;-55
2021/06/30 05:24:34;;;;;;;1.85;1.58;;;22.40;64.80;;;;;;4958990;28;95889;-58
2021/06/30 05:27:09;;;;;;;1.02;1.02;;;22.30;64.90;;;;;;4960728;28;95805;-57
2021/06/30 05:29:45;;;;;;;1.25;1.15;;;22.30;64.90;;;;;;4964042;28;96193;-58
2021/06/30 05:32:21;;;;;;;1.20;1.10;;;22.30;65.00;;;;;;4957380;28;95956;-58
2021/06/30 05:34:58;;;;;;;1.30;1.20;;;22.40;65.10;;;;;;4962007;28;95346;-57
2021/06/30 05:37:35;;;;;;;1.10;1.00;;;22.40;65.10;;;;;;4959807;28;95639;-57
2021/06/30 05:40:14;;;;;;;1.00;1.00;;;22.40;65.10;;;;;;4962151;28;95959;-58
2021/06/30 05:42:49;;;;;;;1.20;1.10;;;22.40;65.20;;;;;;4964666;28;95936;-50
2021/06/30 05:45:24;;;;;;;2.25;2.05;;;22.40;65.20;;;;;;4958183;28;96726;-55
2021/06/30 05:47:58;;;;;;;2.00;1.80;;;22.00;58.90;;;;;;4959164;28;96074;-46
2021/06/30 05:50:33;;;;;;;3.70;1.88;;;21.50;59.90;;;;;;4960628;28;96186;-48
2021/06/30 05:53:08;;;;;;;2.03;1.80;;;21.20;61.50;;;;;;4961840;28;96190;-46
2021/06/30 05:55:43;;;;;;;1.80;1.70;;;21.10;62.00;;;;;;4950328;28;97070;-55
2021/06/30 05:58:18;;;;;;;1.92;1.70;;;20.90;62.60;;;;;;4965668;28;95867;-57
2021/06/30 06:00:54;;;;;;;2.03;1.73;;;20.80;62.70;;;;;;4958045;28;97804;-58
2021/06/30 06:03:29;;;;;;;1.70;1.60;;;20.70;63.00;;;;;;4951077;28;95866;-50
2021/06/30 06:05:59;;;;;;;2.55;2.05;;;20.60;63.10;;;;;;4956885;28;96375;-55
2021/06/30 06:08:36;;;;;;;1.92;1.73;;;20.50;63.60;;;;;;4961641;28;95918;-57
2021/06/30 06:11:12;;;;;;;1.60;1.50;;;20.30;63.70;;;;;;4960461;28;95728;-57
2021/06/30 06:13:48;;;;;;;1.65;1.55;;;20.30;64.00;;;;;;4948189;28;95942;-56
2021/06/30 06:16:24;;;;;;;1.75;1.55;;;20.20;64.20;;;;;;4953061;28;95909;-54
2021/06/30 06:19:00;;;;;;;1.25;1.13;;;20.10;64.50;;;;;;4956306;28;95725;-54
2021/06/30 06:21:35;;;;;;;2.22;1.48;;;20.10;64.60;;;;;;4950542;28;95343;-56
2021/06/30 06:24:10;;;;;;;1.88;1.70;;;20.00;64.80;;;;;;4958089;28;96368;-57
2021/06/30 06:26:47;;;;;;;1.70;1.60;;;19.90;64.90;;;;;;4949403;28;96251;-58
2021/06/30 06:29:24;;;;;;;1.67;1.38;;;19.90;64.90;;;;;;4958019;28;96450;-59
2021/06/30 06:32:01;;;;;;;1.85;1.48;;;19.80;65.20;;;;;;4945844;28;95272;-59
2021/06/30 06:34:36;;;;;;;3.85;1.40;;;20.00;65.20;;;;;;4977344;28;96864;-60
2021/06/30 06:37:14;;;;;;;1.52;1.42;;;19.90;65.10;;;;;;4948091;28;95771;-56
2021/06/30 06:39:50;;;;;;;5.93;1.52;;;20.00;65.20;;;;;;4956167;28;95880;-58
2021/06/30 06:42:26;;;;;;;6.45;1.65;;;19.90;65.30;;;;;;4948820;28;95480;-57
2021/06/30 06:45:05;;;;;;;1.60;1.40;;;19.80;65.90;;;;;;4951641;28;97116;-58
2021/06/30 06:47:39;;;;;;;1.50;1.30;;;19.80;66.00;;;;;;4958416;28;96360;-57
2021/06/30 06:50:14;;;;;;;1.30;1.20;;;19.80;66.00;;;;;;4966337;28;97562;-54
2021/06/30 06:52:50;;;;;;;5.20;1.40;;;19.80;66.00;;;;;;4961561;28;97302;-58
2021/06/30 06:55:26;;;;;;;2.22;1.50;;;19.70;66.20;;;;;;4958201;28;97188;-58
2021/06/30 06:58:02;;;;;;;1.30;1.20;;;19.60;66.30;;;;;;4939409;28;97177;-46
2021/06/30 07:00:38;;;;;;;1.65;1.30;;;19.60;66.60;;;;;;4966031;28;95814;-56
2021/06/30 07:03:07;;;;;;;1.43;0.90;;;19.70;66.30;;;;;;4963540;28;95878;-58
2021/06/30 07:05:43;;;;;;;1.20;1.10;;;19.70;66.30;;;;;;4968144;28;95966;-57
2021/06/30 07:08:19;;;;;;;1.38;1.27;;;19.60;66.50;;;;;;4948497;28;95952;-45
2021/06/30 07:10:55;;;;;;;1.90;1.10;;;19.60;66.70;;;;;;4951863;28;95558;-60
2021/06/30 07:13:30;;;;;;;3.53;1.48;;;19.60;66.80;;;;;;4955773;28;95797;-60
2021/06/30 07:16:08;;;;;;;5.55;1.80;;;19.60;67.10;;;;;;4956479;28;95896;-47
2021/06/30 07:18:44;;;;;;;5.00;1.20;;;19.50;67.20;;;;;;4950922;28;95761;-49
2021/06/30 07:21:19;;;;;;;3.95;1.20;;;19.40;67.30;;;;;;4951520;28;95927;-57
2021/06/30 07:23:53;;;;;;;4.45;1.30;;;19.50;67.70;;;;;;4946178;28;95399;-60
2021/06/30 07:26:28;;;;;;;3.92;1.60;;;19.50;67.60;;;;;;4963721;28;96639;-62
2021/06/30 07:29:03;;;;;;;9.00;1.65;;;19.60;67.40;;;;;;4950766;28;95998;-45
2021/06/30 07:31:39;;;;;;;6.78;2.22;;;19.50;67.80;;;;;;4960428;28;95897;-60
2021/06/30 07:34:16;;;;;;;3.13;1.88;;;19.50;67.80;;;;;;4968096;28;101904;-57
2021/06/30 07:36:52;;;;;;;2.28;1.90;;;19.50;68.00;;;;;;4951628;28;95796;-58
2021/06/30 07:39:29;;;;;;;2.53;2.33;;;19.40;68.20;;;;;;4948520;28;95879;-56
2021/06/30 07:42:06;;;;;;;4.88;2.15;;;19.30;68.40;;;;;;4960219;28;95728;-58
2021/06/30 07:44:43;;;;;;;4.90;2.40;;;19.30;68.80;;;;;;4952680;28;95682;-57
2021/06/30 07:47:13;;;;;;;6.00;2.15;;;19.20;69.20;;;;;;4959825;28;95917;-46
2021/06/30 07:49:43;;;;;;;7.68;2.40;;;19.20;68.90;;;;;;4959115;28;103010;-57
2021/06/30 07:52:13;;;;;;;2.20;1.88;;;19.10;68.80;;;;;;4958492;28;95907;-59
2021/06/30 07:54:44;;;;;;;2.87;2.37;;;19.10;69.10;;;;;;4950845;28;96052;-59
2021/06/30 07:57:14;;;;;;;4.40;1.98;;;19.10;69.00;;;;;;4964234;28;96371;-59
2021/06/30 07:59:45;;;;;;;2.93;2.03;;;19.10;68.70;;;;;;4960435;28;96042;-58
2021/06/30 08:02:17;;;;;;;5.15;2.00;;;19.20;67.90;;;;;;4958506;28;96011;-57
2021/06/30 08:04:47;;;;;;;2.88;2.08;;;19.20;67.70;;;;;;4963245;28;96503;-57
2021/06/30 08:07:19;;;;;;;2.25;1.80;;;19.20;67.60;;;;;;4963052;28;96046;-44
2021/06/30 08:09:49;;;;;;;1.58;1.42;;;19.20;67.50;;;;;;4962931;28;95915;-46
2021/06/30 08:12:20;;;;;;;2.80;1.40;;;19.20;67.50;;;;;;4953576;28;95325;-58
2021/06/30 08:14:51;;;;;;;3.88;2.00;;;19.10;67.60;;;;;;4953944;28;96151;-53
2021/06/30 08:17:23;;;;;;;3.13;1.70;;;19.00;67.80;;;;;;4950872;28;96744;-56
2021/06/30 08:19:54;;;;;;;3.08;1.65;;;19.00;67.90;;;;;;4959229;28;95892;-46
2021/06/30 08:22:24;;;;;;;2.13;1.67;;;19.00;68.30;;;;;;4962544;28;95917;-56
2021/06/30 08:24:55;;;;;;;3.08;1.45;;;19.00;68.30;;;;;;4960885;28;96047;-45
2021/06/30 08:27:26;;;;;;;2.47;1.58;;;18.90;68.00;;;;;;4955818;28;95982;-55
2021/06/30 08:29:59;;;;;;;1.42;1.33;;;18.90;68.10;;;;;;4955678;28;95895;-56
2021/06/30 08:32:31;;;;;;;1.80;1.50;;;18.80;67.90;;;;;;4944155;28;95880;-54
2021/06/30 08:35:03;;;;;;;1.50;1.27;;;18.80;67.90;;;;;;4957559;28;95706;-47
2021/06/30 08:37:40;;;;;;;1.95;1.27;;;18.80;67.90;;;;;;4949986;28;95850;-54
2021/06/30 08:40:13;;;;;;;1.30;1.20;;;18.80;68.10;;;;;;4948343;28;97816;-56
2021/06/30 08:42:45;;;;;;;2.55;1.40;;;18.70;68.10;;;;;;4965291;28;96141;-58
2021/06/30 08:45:16;;;;;;;1.67;1.58;;;18.70;68.20;;;;;;4950178;28;95750;-47
2021/06/30 08:47:48;;;;;;;1.92;1.27;;;18.70;68.20;;;;;;4955985;28;102252;-47
2021/06/30 08:50:20;;;;;;;1.23;1.10;;;18.60;68.20;;;;;;4967230;28;95800;-57
2021/06/30 08:52:56;;;;;;;1.65;1.55;;;18.60;68.30;;;;;;4961377;28;95806;-57
2021/06/30 08:55:44;;;;;;;1.73;1.45;;;18.60;68.30;;;;;;4959802;28;95988;-47
2021/06/30 08:58:15;;;;;;;1.30;1.20;;;18.60;68.40;;;;;;4975860;28;97298;-58
2021/06/30 09:00:47;;;;;;;1.85;1.63;;;18.60;68.50;;;;;;4958817;28;95747;-47
2021/06/30 09:03:19;;;;;;;1.38;1.27;;;18.50;68.50;;;;;;4950124;28;96894;-58
2021/06/30 09:08:44;;;;;;;2.15;1.48;;;18.50;68.60;;;;;;4955860;28;95837;-59
2021/06/30 09:11:20;;;;;;;2.42;1.77;;;18.50;68.60;;;;;;4950176;28;96131;-48
2021/06/30 09:14:09;;;;;;;1.42;1.33;;;18.50;68.60;;;;;;4947513;28;97069;-59
2021/06/30 09:17:00;;;;;;;1.63;1.23;;;18.40;68.60;;;;;;4955733;28;95776;-59
2021/06/30 09:19:45;;;;;;;;;;;18.40;68.70;;;;;;4960894;28;95949;-49
2021/06/30 09:22:17;;;;;;;1.52;1.20;;;18.40;68.70;;;;;;4963461;28;95760;-53
2021/06/30 09:24:49;;;;;;;1.70;1.40;;;18.30;68.80;;;;;;4956435;28;95405;-57
2021/06/30 09:27:35;;;;;;;1.45;1.35;;;18.30;68.80;;;;;;4955345;28;95528;-58
2021/06/30 09:30:08;;;;;;;3.05;1.60;;;18.30;68.80;;;;;;4956734;28;95944;-49
2021/06/30 09:32:57;;;;;;;1.85;1.63;;;18.20;68.60;;;;;;4962107;28;101717;-57
2021/06/30 09:35:34;;;;;;;2.10;1.88;;;18.20;69.00;;;;;;4963319;28;96238;-49
2021/06/30 09:38:31;;;;;;;1.60;1.50;;;18.20;68.90;;;;;;4964260;28;95873;-59
2021/06/30 09:41:03;;;;;;;2.70;1.77;;;18.20;69.10;;;;;;4961404;28;95811;-48
2021/06/30 09:43:36;;;;;;;1.63;1.50;;;18.10;69.10;;;;;;4942391;28;96360;-47
2021/06/30 09:46:19;;;;;;;4.80;2.33;;;18.10;69.10;;;;;;4957979;28;95659;-56
2021/06/30 09:49:00;;;;;;;2.55;1.80;;;18.10;69.10;;;;;;4956950;28;95186;-59
2021/06/30 09:51:31;;;;;;;2.80;1.73;;;18.10;69.10;;;;;;4944104;28;99082;-59
2021/06/30 09:54:15;;;;;;;2.30;1.80;;;18.10;69.20;;;;;;4949360;28;95983;-58
2021/06/30 09:57:02;;;;;;;1.45;1.33;;;18.10;69.20;;;;;;4954807;28;95952;-57
2021/06/30 09:59:37;;;;;;;3.25;1.90;;;18.00;69.20;;;;;;4961112;28;95763;-59
2021/06/30 10:02:23;;;;;;;1.55;1.45;;;18.00;69.20;;;;;;4949138;28;96392;-58
2021/06/30 10:05:01;;;;;;;1.83;1.73;;;17.90;69.30;;;;;;4956889;28;95725;-48
2021/06/30 10:07:33;;;;;;;2.75;2.08;;;17.90;69.40;;;;;;4960595;28;95965;-57
2021/06/30 10:10:11;;;;;;;2.28;1.85;;;17.80;69.40;;;;;;4952666;28;96575;-59
2021/06/30 10:12:41;;;;;;;1.67;1.58;;;17.90;69.50;;;;;;4955223;28;95888;-59
2021/06/30 10:15:14;;;;;;;2.88;1.52;;;17.80;69.40;;;;;;4954673;28;95618;-58
2021/06/30 10:17:45;;;;;;;2.33;1.60;;;17.80;69.40;;;;;;4950824;28;105413;-48
2021/06/30 10:20:18;;;;;;;1.50;1.40;;;17.80;69.40;;;;;;4961835;28;95754;-59
2021/06/30 10:22:48;;;;;;;1.50;1.40;;;17.80;69.60;;;;;;4955138;28;95907;-48
2021/06/30 10:25:19;;;;;;;2.30;1.70;;;17.70;69.70;;;;;;4956683;28;95883;-57
2021/06/30 10:27:53;;;;;;;1.20;1.08;;;17.60;70.00;;;;;;4950431;28;97243;-53
2021/06/30 10:30:24;;;;;;;2.20;1.67;;;17.60;70.30;;;;;;4948290;28;95745;-56
2021/06/30 10:33:02;;;;;;;1.73;1.58;;;17.50;70.30;;;;;;4953601;28;96277;-56
2021/06/30 10:35:46;;;;;;;1.52;1.42;;;17.50;70.60;;;;;;4951973;28;95579;-58
2021/06/30 10:38:18;;;;;;;3.15;1.45;;;17.50;70.80;;;;;;4953298;28;96111;-57
2021/06/30 10:40:50;;;;;;;1.40;1.30;;;17.50;70.90;;;;;;4954085;28;95392;-48
2021/06/30 10:43:25;;;;;;;3.08;1.10;;;17.50;70.70;;;;;;4958955;28;96195;-48
2021/06/30 10:46:33;;;;;;;1.25;1.15;;;17.50;70.70;;;;;;4959833;28;95766;-48
2021/06/30 10:49:32;;;;;;;1.73;1.48;;;17.50;70.90;;;;;;4954677;28;95761;-58
2021/06/30 10:52:04;;;;;;;1.48;1.20;;;17.50;70.90;;;;;;4954683;28;95727;-56
2021/06/30 10:54:33;;;;;;;;;;;17.40;70.90;;;;;;4960759;28;96207;-49
2021/06/30 10:57:26;;;;;;;1.50;1.40;;;17.40;70.90;;;;;;4965093;28;95756;-48
2021/06/30 11:00:05;;;;;;;1.30;1.20;;;17.40;70.90;;;;;;4963675;28;95811;-48
2021/06/30 11:02:36;;;;;;;1.40;1.20;;;17.40;70.90;;;;;;4959373;28;95708;-58
2021/06/30 11:05:15;;;;;;;1.50;1.20;;;17.40;70.90;;;;;;4968244;28;96334;-49
2021/06/30 11:07:47;;;;;;;1.40;1.13;;;17.40;71.00;;;;;;4960432;28;98060;-57
2021/06/30 11:10:21;;;;;;;1.20;1.05;;;17.30;70.90;;;;;;4966080;28;95857;-48
2021/06/30 11:12:58;;;;;;;1.67;1.58;;;17.40;70.90;;;;;;4957547;28;95359;-57
2021/06/30 11:15:40;;;;;;;1.52;1.30;;;17.30;70.90;;;;;;4952343;28;95847;-48
2021/06/30 11:18:12;;;;;;;1.05;1.00;;;17.30;70.90;;;;;;4964766;28;95607;-49
2021/06/30 11:20:50;;;;;;;;;;;17.30;70.80;;;;;;4960364;28;95980;-56
2021/06/30 11:23:21;;;;;;;1.23;1.13;;;17.30;70.90;;;;;;4958571;28;95536;-58
2021/06/30 11:25:54;;;;;;;1.08;1.00;;;17.30;70.90;;;;;;4955487;28;96281;-58
2021/06/30 11:28:38;;;;;;;1.13;1.02;;;17.30;70.90;;;;;;4952614;28;95816;-58
2021/06/30 11:31:32;;;;;;;2.03;1.20;;;17.30;70.80;;;;;;4951020;28;96653;-57
2021/06/30 11:34:10;;;;;;;1.63;1.20;;;17.30;70.90;;;;;;4950874;28;96386;-58
2021/06/30 11:36:44;;;;;;;1.45;1.23;;;17.20;70.80;;;;;;4963674;28;96873;-58
2021/06/30 11:39:20;;;;;;;1.15;1.05;;;17.20;70.80;;;;;;4949739;28;97148;-58
2021/06/30 11:41:54;;;;;;;1.45;1.35;;;17.20;70.90;;;;;;4957123;28;95916;-58
2021/06/30 11:44:39;;;;;;;1.55;1.00;;;17.20;70.80;;;;;;4958070;28;95236;-57
2021/06/30 11:47:10;;;;;;;1.05;0.98;;;17.20;71.40;;;;;;4958838;28;95927;-57
2021/06/30 11:49:40;;;;;;;1.20;1.10;;;17.10;70.90;;;;;;4963223;28;95792;-56
2021/06/30 11:52:14;;;;;;;1.30;1.20;;;17.20;70.80;;;;;;4967917;28;95362;-56
2021/06/30 11:54:54;;;;;;;1.40;1.30;;;17.20;70.80;;;;;;4965857;28;102777;-54
2021/06/30 11:57:25;;;;;;;1.17;1.00;;;17.20;70.80;;;;;;4971172;28;95874;-59
2021/06/30 12:00:11;;;;;;;1.85;0.80;;;17.20;70.80;;;;;;4967228;28;95715;-47
2021/06/30 12:02:53;;;;;;;0.90;0.90;;;17.10;70.70;;;;;;4966866;28;95905;-56
2021/06/30 12:05:26;;;;;;;1.90;1.58;;;17.10;70.80;;;;;;4964988;28;95923;-48
2021/06/30 12:07:59;;;;;;;1.88;1.38;;;17.10;70.80;;;;;;4965453;28;96114;-56
2021/06/30 12:10:32;;;;;;;1.92;1.38;;;17.10;70.80;;;;;;4966448;28;95287;-49
2021/06/30 12:13:05;;;;;;;1.60;1.42;;;17.10;70.80;;;;;;4954057;28;95820;-58
2021/06/30 12:15:43;;;;;;;1.23;1.10;;;17.10;70.80;;;;;;4948537;28;95415;-57
2021/06/30 12:18:16;;;;;;;1.65;1.15;;;17.10;70.30;;;;;;4959759;28;96630;-58
2021/06/30 12:20:48;;;;;;;1.30;1.20;;;17.10;70.80;;;;;;4959622;28;96129;-58
2021/06/30 12:23:18;;;;;;;1.15;1.05;;;17.10;70.90;;;;;;4953326;28;96215;-48
2021/06/30 12:25:49;;;;;;;1.83;1.03;;;17.00;70.80;;;;;;4956397;28;96180;-58
2021/06/30 12:28:21;;;;;;;;;;;17.10;70.90;;;;;;4959181;28;95873;-50
2021/06/30 12:30:56;;;;;;;1.23;1.13;;;17.00;70.80;;;;;;4963041;28;97853;-48
2021/06/30 12:33:28;;;;;;;1.70;1.35;;;17.00;70.80;;;;;;4969217;28;95799;-54
2021/06/30 12:35:59;;;;;;;;;;;17.00;70.90;;;;;;4953709;28;95630;-48
2021/06/30 12:38:33;;;;;;;3.03;1.50;;;17.00;70.80;;;;;;4952823;28;95875;-56
2021/06/30 12:41:10;;;;;;;1.48;1.02;;;17.00;70.80;;;;;;4957494;28;95987;-57
2021/06/30 12:43:43;;;;;;;1.42;1.33;;;17.00;70.90;;;;;;4955842;28;95762;-48
2021/06/30 12:46:21;;;;;;;1.35;1.25;;;17.00;70.90;;;;;;4958645;28;103383;-48
2021/06/30 12:48:51;;;;;;;1.25;1.13;;;16.90;70.90;;;;;;4960623;28;96260;-58
2021/06/30 12:51:25;;;;;;;1.42;1.33;;;16.90;70.80;;;;;;4967245;28;96010;-58
2021/06/30 12:54:05;;;;;;;1.55;1.30;;;16.90;70.90;;;;;;4985075;28;95350;-49
2021/06/30 12:56:42;;;;;;;1.30;1.20;;;16.90;70.90;;;;;;4960224;28;99153;-48
2021/06/30 12:59:15;;;;;;;1.15;1.05;;;16.90;71.00;;;;;;4964104;28;96026;-48
2021/06/30 13:01:47;;;;;;;1.30;1.20;;;16.90;71.00;;;;;;4975042;28;97137;-48
2021/06/30 13:04:29;;;;;;;1.30;1.20;;;16.90;71.00;;;;;;4967359;28;96087;-48
2021/06/30 13:07:00;;;;;;;1.75;1.15;;;16.90;70.90;;;;;;4955066;28;96003;-58
2021/06/30 13:09:34;;;;;;;1.95;1.30;;;16.90;71.00;;;;;;4968778;28;96113;-56
2021/06/30 13:12:05;;;;;;;1.40;1.30;;;16.80;71.00;;;;;;4959400;28;96003;-50
2021/06/30 13:14:40;;;;;;;1.88;1.67;;;16.80;70.90;;;;;;4958097;28;95918;-57
2021/06/30 13:17:14;;;;;;;1.58;1.20;;;16.80;70.90;;;;;;4955999;28;96381;-57
2021/06/30 13:19:48;;;;;;;1.80;1.55;;;16.80;71.00;;;;;;4957011;28;95976;-57
2021/06/30 13:22:26;;;;;;;1.40;1.30;;;16.70;71.00;;;;;;4955827;28;95829;-58
2021/06/30 13:25:08;;;;;;;1.13;1.02;;;16.70;71.00;;;;;;4959977;28;95637;-58
2021/06/30 13:36:05;;;;;;;1.80;1.70;;;16.70;71.20;;;;;;4931561;28;95691;-57
2021/06/30 13:38:40;;;;;;;1.67;1.58;;;16.60;71.10;;;;;;4931155;28;96058;-48
2021/06/30 13:41:17;;;;;;;1.95;1.60;;;16.60;71.10;;;;;;4936132;28;96184;-48
2021/06/30 13:43:52;;;;;;;1.88;1.65;;;16.60;71.10;;;;;;4935518;28;95764;-48